sensor_id;sensor_type;location;lat;lon;timestamp;pressure;altitude;pressure_sealevel;temperature;humidity
31088;BME280;17745;55.914;37.554;2022-12-10T04:50:59;98946.34;;;2.64;54.58
31088;BME280;17745;55.914;37.554;2022-12-10T04:53:48;98942.53;;;2.66;54.58
31088;BME280;17745;55.914;37.554;2022-12-10T04:56:35;98939.09;;;2.66;54.55
31088;BME280;17745;55.914;37.554;2022-12-10T04:59:31;98935.09;;;2.63;54.63
31088;BME280;17745;55.914;37.554;2022-12-10T05:02:31;98932.09;;;2.66;54.55
31088;BME280;17745;55.914;37.554;2022-12-10T05:05:38;98932.66;;;2.68;54.62
31088;BME280;17745;55.914;37.554;2022-12-10T09:21:22;98896.94;;;4.03;54.08
31088;BME280;17745;55.914;37.554;2022-12-10T09:28:06;98905.63;;;4.22;53.86
31088;BME280;17745;55.914;37.554;2022-12-10T09:31:12;98894.34;;;4.21;53.84
31088;BME280;17745;55.914;37.554;2022-12-10T09:34:02;98886.91;;;4.18;53.87
31088;BME280;17745;55.914;37.554;2022-12-10T09:45:58;98873.50;;;3.89;54.09
31088;BME280;17745;55.914;37.554;2022-12-10T09:48:36;98870.94;;;3.82;54.28
31088;BME280;17745;55.914;37.554;2022-12-10T09:51:18;98874.94;;;3.85;54.27
31088;BME280;17745;55.914;37.554;2022-12-10T09:54:15;98867.09;;;3.85;54.25
31088;BME280;17745;55.914;37.554;2022-12-10T09:57:15;98867.66;;;3.87;54.17
31088;BME280;17745;55.914;37.554;2022-12-10T10:00:29;98867.81;;;3.92;54.19
31088;BME280;17745;55.914;37.554;2022-12-10T10:09:51;98872.03;;;3.93;54.02
31088;BME280;17745;55.914;37.554;2022-12-10T10:12:43;98873.00;;;3.99;54.09
31088;BME280;17745;55.914;37.554;2022-12-10T10:15:18;98863.91;;;4.02;54.00
31088;BME280;17745;55.914;37.554;2022-12-10T10:18:08;98861.62;;;4.05;53.92
31088;BME280;17745;55.914;37.554;2022-12-10T10:20:52;98859.69;;;4.00;53.98
31088;BME280;17745;55.914;37.554;2022-12-10T10:23:20;98852.84;;;3.99;54.02
31088;BME280;17745;55.914;37.554;2022-12-10T10:25:56;98847.25;;;3.96;54.07
31088;BME280;17745;55.914;37.554;2022-12-10T10:28:26;98855.97;;;3.90;54.13
31088;BME280;17745;55.914;37.554;2022-12-10T10:30:54;98851.09;;;3.93;54.19
31088;BME280;17745;55.914;37.554;2022-12-10T10:33:22;98859.38;;;3.90;54.11
31088;BME280;17745;55.914;37.554;2022-12-10T10:35:52;98863.22;;;3.87;54.27
31088;BME280;17745;55.914;37.554;2022-12-10T10:38:23;98852.53;;;3.89;54.23
31088;BME280;17745;55.914;37.554;2022-12-10T10:40:55;98847.88;;;3.91;54.24
31088;BME280;17745;55.914;37.554;2022-12-10T10:43:31;98850.06;;;3.94;54.29
31088;BME280;17745;55.914;37.554;2022-12-10T10:46:04;98845.56;;;4.02;54.29
31088;BME280;17745;55.914;37.554;2022-12-10T10:48:41;98834.22;;;4.08;54.25
31088;BME280;17745;55.914;37.554;2022-12-10T10:51:15;98833.00;;;4.10;54.11
31088;BME280;17745;55.914;37.554;2022-12-10T10:53:55;98824.91;;;4.12;54.07
31088;BME280;17745;55.914;37.554;2022-12-10T10:59:54;98827.37;;;4.07;54.22
31088;BME280;17745;55.914;37.554;2022-12-10T11:02:40;98822.66;;;3.97;54.37
31088;BME280;17745;55.914;37.554;2022-12-10T11:05:37;98812.63;;;3.94;54.54
31088;BME280;17745;55.914;37.554;2022-12-10T11:08:12;98813.97;;;3.96;54.61
31088;BME280;17745;55.914;37.554;2022-12-10T11:11:01;98812.09;;;4.04;54.55
31088;BME280;17745;55.914;37.554;2022-12-10T11:13:46;98814.84;;;4.09;54.44
31088;BME280;17745;55.914;37.554;2022-12-10T11:16:20;98813.41;;;4.13;54.38
31088;BME280;17745;55.914;37.554;2022-12-10T11:19:01;98801.25;;;4.19;54.34
31088;BME280;17745;55.914;37.554;2022-12-10T11:21:51;98806.94;;;4.15;54.40
31088;BME280;17745;55.914;37.554;2022-12-10T11:24:26;98796.53;;;4.09;54.35
31088;BME280;17745;55.914;37.554;2022-12-10T11:27:01;98793.53;;;4.05;54.48
31088;BME280;17745;55.914;37.554;2022-12-10T11:29:53;98794.34;;;4.06;54.53
31088;BME280;17745;55.914;37.554;2022-12-10T11:39:17;98775.44;;;4.04;54.38
31088;BME280;17745;55.914;37.554;2022-12-10T11:42:22;98781.37;;;3.92;54.54
31088;BME280;17745;55.914;37.554;2022-12-10T11:45:31;98775.44;;;3.85;54.72
31088;BME280;17745;55.914;37.554;2022-12-10T11:48:25;98771.22;;;3.84;54.63
31088;BME280;17745;55.914;37.554;2022-12-10T11:50:59;98766.56;;;3.86;54.68
31088;BME280;17745;55.914;37.554;2022-12-10T11:53:35;98759.84;;;3.90;54.55
31088;BME280;17745;55.914;37.554;2022-12-10T11:56:26;98762.03;;;3.93;54.48
31088;BME280;17745;55.914;37.554;2022-12-10T11:58:58;98758.37;;;3.94;54.54
31088;BME280;17745;55.914;37.554;2022-12-10T12:01:39;98758.97;;;3.96;54.52
31088;BME280;17745;55.914;37.554;2022-12-10T12:04:49;98764.66;;;3.93;54.51
31088;BME280;17745;55.914;37.554;2022-12-10T12:07:44;98759.06;;;3.90;54.56
31088;BME280;17745;55.914;37.554;2022-12-10T12:10:52;98757.69;;;3.87;54.66
31088;BME280;17745;55.914;37.554;2022-12-10T12:13:40;98764.38;;;3.83;54.68
31088;BME280;17745;55.914;37.554;2022-12-10T12:16:16;98768.66;;;3.77;54.85
31088;BME280;17745;55.914;37.554;2022-12-10T12:19:02;98768.88;;;3.76;54.80
31088;BME280;17745;55.914;37.554;2022-12-10T12:21:47;98777.75;;;3.75;54.78
31088;BME280;17745;55.914;37.554;2022-12-10T12:24:38;98763.50;;;3.70;54.74
31088;BME280;17745;55.914;37.554;2022-12-10T12:27:43;98764.56;;;3.63;54.82
31088;BME280;17745;55.914;37.554;2022-12-10T12:30:20;98768.44;;;3.60;54.88
31088;BME280;17745;55.914;37.554;2022-12-10T12:32:51;98768.50;;;3.53;54.99
31088;BME280;17745;55.914;37.554;2022-12-10T12:35:23;98763.47;;;3.52;55.09
31088;BME280;17745;55.914;37.554;2022-12-10T12:37:56;98755.44;;;3.53;55.07
31088;BME280;17745;55.914;37.554;2022-12-10T12:40:28;98754.16;;;3.56;55.07
31088;BME280;17745;55.914;37.554;2022-12-10T12:43:03;98750.91;;;3.61;54.99
31088;BME280;17745;55.914;37.554;2022-12-10T12:48:38;98749.69;;;3.63;54.95
31088;BME280;17745;55.914;37.554;2022-12-10T12:51:37;98745.59;;;3.67;54.89
31088;BME280;17745;55.914;37.554;2022-12-10T12:54:26;98744.97;;;3.72;54.83
31088;BME280;17745;55.914;37.554;2022-12-10T12:57:04;98754.19;;;3.75;54.81
31088;BME280;17745;55.914;37.554;2022-12-10T12:59:39;98758.78;;;3.79;54.78
31088;BME280;17745;55.914;37.554;2022-12-10T13:08:59;98750.41;;;3.70;54.98
31088;BME280;17745;55.914;37.554;2022-12-10T13:14:53;98750.47;;;3.64;54.99
31088;BME280;17745;55.914;37.554;2022-12-10T13:17:28;98753.31;;;3.62;55.04
31088;BME280;17745;55.914;37.554;2022-12-10T13:22:54;98754.28;;;3.68;54.93
31088;BME280;17745;55.914;37.554;2022-12-10T13:29:12;98751.72;;;3.61;54.90
31088;BME280;17745;55.914;37.554;2022-12-10T13:32:13;98754.41;;;3.54;55.03
31088;BME280;17745;55.914;37.554;2022-12-10T13:45:45;98729.00;;;3.55;55.04
31088;BME280;17745;55.914;37.554;2022-12-10T13:48:49;98737.88;;;3.54;55.00
31088;BME280;17745;55.914;37.554;2022-12-10T13:51:48;98739.78;;;3.47;55.13
31088;BME280;17745;55.914;37.554;2022-12-10T13:54:31;98743.41;;;3.46;55.25
31088;BME280;17745;55.914;37.554;2022-12-10T13:57:15;98742.97;;;3.49;55.18
31088;BME280;17745;55.914;37.554;2022-12-10T14:16:22;98724.62;;;3.30;55.23
31088;BME280;17745;55.914;37.554;2022-12-10T14:18:52;98725.66;;;3.29;55.32
31088;BME280;17745;55.914;37.554;2022-12-10T14:21:20;98719.84;;;3.27;55.40
31088;BME280;17745;55.914;37.554;2022-12-10T14:23:51;98717.66;;;3.24;55.46
31088;BME280;17745;55.914;37.554;2022-12-10T14:26:19;98715.84;;;3.24;55.49
31088;BME280;17745;55.914;37.554;2022-12-10T14:28:48;98720.03;;;3.25;55.51
31088;BME280;17745;55.914;37.554;2022-12-10T14:31:17;98711.19;;;3.26;55.47
31088;BME280;17745;55.914;37.554;2022-12-10T14:33:46;98698.34;;;3.25;55.54
31088;BME280;17745;55.914;37.554;2022-12-10T14:36:16;98696.16;;;3.22;55.53
31088;BME280;17745;55.914;37.554;2022-12-10T14:39:02;98697.37;;;3.19;55.56
31088;BME280;17745;55.914;37.554;2022-12-10T14:41:55;98697.37;;;3.19;55.64
31088;BME280;17745;55.914;37.554;2022-12-10T14:44:25;98690.16;;;3.14;55.62
31088;BME280;17745;55.914;37.554;2022-12-10T14:47:12;98689.37;;;3.14;55.71
31088;BME280;17745;55.914;37.554;2022-12-10T14:49:51;98684.94;;;3.14;55.72
31088;BME280;17745;55.914;37.554;2022-12-10T14:52:24;98683.91;;;3.15;55.67
31088;BME280;17745;55.914;37.554;2022-12-10T14:55:26;98681.53;;;3.14;55.75
31088;BME280;17745;55.914;37.554;2022-12-10T14:58:38;98671.84;;;3.14;55.81
31088;BME280;17745;55.914;37.554;2022-12-10T15:01:30;98668.09;;;3.10;55.98
31088;BME280;17745;55.914;37.554;2022-12-10T15:04:58;98664.09;;;3.08;55.99
31088;BME280;17745;55.914;37.554;2022-12-10T15:07:40;98646.56;;;3.08;55.95
31088;BME280;17745;55.914;37.554;2022-12-10T15:10:16;98651.22;;;3.06;56.01
31088;BME280;17745;55.914;37.554;2022-12-10T15:12:48;98645.63;;;3.03;56.08
31088;BME280;17745;55.914;37.554;2022-12-10T15:15:28;98640.03;;;2.99;56.03
31088;BME280;17745;55.914;37.554;2022-12-10T15:17:58;98633.78;;;3.00;56.02
31088;BME280;17745;55.914;37.554;2022-12-10T15:20:27;98631.97;;;3.00;56.16
31088;BME280;17745;55.914;37.554;2022-12-10T15:23:07;98623.91;;;3.02;56.36
31088;BME280;17745;55.914;37.554;2022-12-10T15:25:41;98620.47;;;3.02;56.31
31088;BME280;17745;55.914;37.554;2022-12-10T15:31:30;98606.31;;;3.09;56.30
31088;BME280;17745;55.914;37.554;2022-12-10T15:33:58;98600.31;;;3.09;56.37
31088;BME280;17745;55.914;37.554;2022-12-10T15:36:31;98607.72;;;3.12;56.32
31088;BME280;17745;55.914;37.554;2022-12-10T15:39:03;98594.41;;;3.13;56.30
31088;BME280;17745;55.914;37.554;2022-12-10T15:41:40;98583.53;;;3.17;56.21
31088;BME280;17745;55.914;37.554;2022-12-10T15:44:17;98585.91;;;3.18;56.25
31088;BME280;17745;55.914;37.554;2022-12-10T15:46:49;98574.66;;;3.18;56.34
31088;BME280;17745;55.914;37.554;2022-12-10T15:49:17;98575.44;;;3.18;56.30
31088;BME280;17745;55.914;37.554;2022-12-10T16:14:23;98537.59;;;3.21;56.71
31088;BME280;17745;55.914;37.554;2022-12-10T16:16:54;98532.13;;;3.22;56.67
31088;BME280;17745;55.914;37.554;2022-12-10T16:20:09;98517.81;;;3.25;56.64
31088;BME280;17745;55.914;37.554;2022-12-10T16:24:28;98517.81;;;3.25;56.66
31088;BME280;17745;55.914;37.554;2022-12-10T16:27:08;98511.00;;;3.24;56.78
31088;BME280;17745;55.914;37.554;2022-12-10T16:42:59;98514.84;;;3.21;56.92
31088;BME280;17745;55.914;37.554;2022-12-10T16:49:03;98508.75;;;3.27;56.90
31088;BME280;17745;55.914;37.554;2022-12-10T16:52:13;98508.75;;;3.27;56.96
31088;BME280;17745;55.914;37.554;2022-12-10T17:23:43;98490.75;;;3.31;56.85
31088;BME280;17745;55.914;37.554;2022-12-10T17:29:39;98479.06;;;3.34;57.00
31088;BME280;17745;55.914;37.554;2022-12-10T17:39:22;98464.16;;;3.34;57.08
31088;BME280;17745;55.914;37.554;2022-12-10T17:41:58;98462.09;;;3.36;57.25
31088;BME280;17745;55.914;37.554;2022-12-10T17:48:24;98449.16;;;3.41;57.11
31088;BME280;17745;55.914;37.554;2022-12-10T17:51:36;98444.38;;;3.38;57.23
31088;BME280;17745;55.914;37.554;2022-12-10T18:45:57;98383.66;;;3.60;57.54
31088;BME280;17745;55.914;37.554;2022-12-10T18:48:31;98380.59;;;3.63;57.46
31088;BME280;17745;55.914;37.554;2022-12-10T18:50:59;98375.34;;;3.63;57.48
31088;BME280;17745;55.914;37.554;2022-12-10T18:53:26;98381.16;;;3.65;57.41
31088;BME280;17745;55.914;37.554;2022-12-10T18:55:57;98384.91;;;3.69;57.38
31088;BME280;17745;55.914;37.554;2022-12-10T18:58:52;98384.13;;;3.69;57.42
31088;BME280;17745;55.914;37.554;2022-12-10T19:01:25;98379.66;;;3.69;57.34
31088;BME280;17745;55.914;37.554;2022-12-10T19:03:54;98375.66;;;3.67;57.29
31088;BME280;17745;55.914;37.554;2022-12-10T19:06:22;98380.22;;;3.71;57.21
31088;BME280;17745;55.914;37.554;2022-12-10T19:08:51;98378.19;;;3.74;57.14
31088;BME280;17745;55.914;37.554;2022-12-10T19:11:21;98383.88;;;3.70;57.11
31088;BME280;17745;55.914;37.554;2022-12-10T19:13:51;98371.81;;;3.69;57.11
31088;BME280;17745;55.914;37.554;2022-12-10T19:16:22;98362.94;;;3.58;57.45
31088;BME280;17745;55.914;37.554;2022-12-10T19:18:52;98361.69;;;3.61;57.36
31088;BME280;17745;55.914;37.554;2022-12-10T19:21:21;98358.06;;;3.62;57.54
31088;BME280;17745;55.914;37.554;2022-12-10T19:23:58;98355.44;;;3.62;57.75
31088;BME280;17745;55.914;37.554;2022-12-10T19:26:27;98357.81;;;3.64;57.71
31088;BME280;17745;55.914;37.554;2022-12-10T19:28:57;98352.13;;;3.67;57.75
31088;BME280;17745;55.914;37.554;2022-12-10T19:31:25;98352.91;;;3.67;57.79
31088;BME280;17745;55.914;37.554;2022-12-10T19:33:57;98347.47;;;3.69;57.96
31088;BME280;17745;55.914;37.554;2022-12-10T19:36:26;98343.59;;;3.71;57.98
31088;BME280;17745;55.914;37.554;2022-12-10T19:39:20;98342.00;;;3.70;58.01
31088;BME280;17745;55.914;37.554;2022-12-10T19:42:04;98330.50;;;3.71;58.04
31088;BME280;17745;55.914;37.554;2022-12-10T19:44:50;98328.69;;;3.72;58.08
31088;BME280;17745;55.914;37.554;2022-12-10T19:47:21;98323.44;;;3.72;58.04
31088;BME280;17745;55.914;37.554;2022-12-10T19:49:53;98312.72;;;3.74;58.10
31088;BME280;17745;55.914;37.554;2022-12-10T19:52:21;98305.12;;;3.72;58.21
31088;BME280;17745;55.914;37.554;2022-12-10T19:54:55;98302.72;;;3.70;58.29
31088;BME280;17745;55.914;37.554;2022-12-10T19:57:26;98311.69;;;3.75;58.26
31088;BME280;17745;55.914;37.554;2022-12-10T20:00:15;98310.69;;;3.76;58.26
31088;BME280;17745;55.914;37.554;2022-12-10T20:02:52;98310.81;;;3.81;58.28
31088;BME280;17745;55.914;37.554;2022-12-10T20:05:38;98305.66;;;3.86;58.15
31088;BME280;17745;55.914;37.554;2022-12-10T20:08:17;98301.00;;;3.88;58.03
31088;BME280;17745;55.914;37.554;2022-12-10T20:11:02;98306.00;;;3.90;57.90
31088;BME280;17745;55.914;37.554;2022-12-10T20:13:50;98307.81;;;3.89;57.72
31088;BME280;17745;55.914;37.554;2022-12-10T20:16:21;98307.25;;;3.87;57.89
31088;BME280;17745;55.914;37.554;2022-12-10T20:18:58;98311.00;;;3.91;57.70
31088;BME280;17745;55.914;37.554;2022-12-10T20:21:33;98306.31;;;3.93;57.85
31088;BME280;17745;55.914;37.554;2022-12-10T20:24:02;98298.47;;;3.93;57.95
31088;BME280;17745;55.914;37.554;2022-12-10T20:26:45;98306.91;;;3.95;57.89
31088;BME280;17745;55.914;37.554;2022-12-10T20:29:30;98296.41;;;3.95;57.83
31088;BME280;17745;55.914;37.554;2022-12-10T20:32:04;98293.59;;;3.97;57.79
31088;BME280;17745;55.914;37.554;2022-12-10T20:34:35;98297.56;;;3.99;57.88
31088;BME280;17745;55.914;37.554;2022-12-10T20:37:08;98290.84;;;4.04;57.96
31088;BME280;17745;55.914;37.554;2022-12-10T20:39:37;98293.22;;;4.05;57.96
31088;BME280;17745;55.914;37.554;2022-12-10T20:42:06;98286.16;;;4.06;57.99
31088;BME280;17745;55.914;37.554;2022-12-10T20:44:36;98290.94;;;4.09;58.12
31088;BME280;17745;55.914;37.554;2022-12-10T20:47:08;98288.31;;;4.09;57.87
31088;BME280;17745;55.914;37.554;2022-12-10T20:49:39;98292.28;;;4.11;57.72
31088;BME280;17745;55.914;37.554;2022-12-10T20:52:18;98287.63;;;4.13;57.80
31088;BME280;17745;55.914;37.554;2022-12-10T20:55:13;98289.22;;;4.14;57.72
31088;BME280;17745;55.914;37.554;2022-12-10T20:57:46;98277.91;;;4.14;57.80
31088;BME280;17745;55.914;37.554;2022-12-10T21:00:15;98276.34;;;4.13;57.82
31088;BME280;17745;55.914;37.554;2022-12-10T21:02:43;98279.19;;;4.11;57.68
31088;BME280;17745;55.914;37.554;2022-12-10T21:05:12;98276.59;;;4.11;57.60
31088;BME280;17745;55.914;37.554;2022-12-10T21:07:41;98278.87;;;4.08;57.63
31088;BME280;17745;55.914;37.554;2022-12-10T21:10:11;98276.25;;;4.08;57.68
31088;BME280;17745;55.914;37.554;2022-12-10T21:13:01;98281.47;;;4.08;57.77
31088;BME280;17745;55.914;37.554;2022-12-10T21:15:28;98280.91;;;4.06;57.97
31088;BME280;17745;55.914;37.554;2022-12-10T21:17:56;98290.38;;;4.07;58.14
31088;BME280;17745;55.914;37.554;2022-12-10T21:20:24;98283.88;;;4.09;58.27
31088;BME280;17745;55.914;37.554;2022-12-10T21:22:55;98281.47;;;4.08;58.05
31088;BME280;17745;55.914;37.554;2022-12-10T21:25:25;98290.16;;;4.08;57.98
31088;BME280;17745;55.914;37.554;2022-12-10T21:28:03;98288.41;;;4.14;58.01
31088;BME280;17745;55.914;37.554;2022-12-10T21:30:31;98287.94;;;4.17;58.07
31088;BME280;17745;55.914;37.554;2022-12-10T21:32:59;98285.31;;;4.17;58.14
31088;BME280;17745;55.914;37.554;2022-12-10T21:35:30;98284.28;;;4.18;58.11
31088;BME280;17745;55.914;37.554;2022-12-10T21:40:49;98290.12;;;4.20;58.29
31088;BME280;17745;55.914;37.554;2022-12-10T21:43:32;98291.22;;;4.24;58.23
31088;BME280;17745;55.914;37.554;2022-12-10T21:46:07;98281.53;;;4.25;58.22
31088;BME280;17745;55.914;37.554;2022-12-10T21:48:44;98270.97;;;4.20;58.26
31088;BME280;17745;55.914;37.554;2022-12-10T21:51:18;98284.88;;;4.20;58.35
31088;BME280;17745;55.914;37.554;2022-12-10T21:53:48;98282.00;;;4.22;58.37
31088;BME280;17745;55.914;37.554;2022-12-10T21:56:19;98274.69;;;4.24;58.39
31088;BME280;17745;55.914;37.554;2022-12-10T21:59:03;98274.22;;;4.27;58.40
31088;BME280;17745;55.914;37.554;2022-12-10T22:01:54;98268.53;;;4.30;58.42
31088;BME280;17745;55.914;37.554;2022-12-10T22:04:38;98270.91;;;4.32;58.22
31088;BME280;17745;55.914;37.554;2022-12-10T22:07:12;98272.50;;;4.33;58.22
31088;BME280;17745;55.914;37.554;2022-12-10T22:09:41;98268.63;;;4.35;58.16
31088;BME280;17745;55.914;37.554;2022-12-10T22:12:13;98269.97;;;4.38;58.17
31088;BME280;17745;55.914;37.554;2022-12-10T22:14:44;98270.56;;;4.40;58.12
31088;BME280;17745;55.914;37.554;2022-12-10T22:17:12;98275.53;;;4.41;58.01
31088;BME280;17745;55.914;37.554;2022-12-10T22:19:45;98273.75;;;4.42;58.07
31088;BME280;17745;55.914;37.554;2022-12-10T22:22:12;98264.03;;;4.42;58.04
31088;BME280;17745;55.914;37.554;2022-12-10T22:24:41;98262.44;;;4.41;57.97
31088;BME280;17745;55.914;37.554;2022-12-10T22:27:09;98254.59;;;4.41;58.03
31088;BME280;17745;55.914;37.554;2022-12-10T22:29:41;98252.78;;;4.42;57.91
31088;BME280;17745;55.914;37.554;2022-12-10T22:32:13;98253.94;;;4.34;57.73
31088;BME280;17745;55.914;37.554;2022-12-10T22:34:41;98257.25;;;4.29;57.48
31088;BME280;17745;55.914;37.554;2022-12-10T22:37:15;98262.97;;;4.26;57.54
31088;BME280;17745;55.914;37.554;2022-12-10T22:39:43;98252.06;;;4.18;57.71
31088;BME280;17745;55.914;37.554;2022-12-10T22:42:25;98253.88;;;4.17;57.59
31088;BME280;17745;55.914;37.554;2022-12-10T22:48:34;98259.62;;;4.60;57.06
31088;BME280;17745;55.914;37.554;2022-12-10T22:51:04;98265.16;;;4.18;57.91
31088;BME280;17745;55.914;37.554;2022-12-10T22:53:33;98268.56;;;4.18;57.87
31088;BME280;17745;55.914;37.554;2022-12-10T22:56:03;98258.91;;;4.19;57.82
31088;BME280;17745;55.914;37.554;2022-12-10T22:58:32;98258.56;;;4.15;57.88
31088;BME280;17745;55.914;37.554;2022-12-10T23:01:01;98259.03;;;4.12;57.80
31088;BME280;17745;55.914;37.554;2022-12-10T23:03:30;98263.22;;;4.13;57.99
31088;BME280;17745;55.914;37.554;2022-12-10T23:06:00;98259.84;;;4.12;57.99
31088;BME280;17745;55.914;37.554;2022-12-10T23:08:29;98261.34;;;4.08;57.97
31088;BME280;17745;55.914;37.554;2022-12-10T23:11:00;98265.75;;;4.08;58.09
31088;BME280;17745;55.914;37.554;2022-12-10T23:13:28;98259.03;;;4.12;58.17
31088;BME280;17745;55.914;37.554;2022-12-10T23:15:55;98268.00;;;4.16;58.29
31088;BME280;17745;55.914;37.554;2022-12-10T23:18:24;98272.22;;;4.17;58.32
31088;BME280;17745;55.914;37.554;2022-12-10T23:20:52;98273.38;;;4.21;58.19
31088;BME280;17745;55.914;37.554;2022-12-10T23:23:21;98276.28;;;4.25;58.13
31088;BME280;17745;55.914;37.554;2022-12-10T23:25:49;98263.53;;;4.28;58.10
31088;BME280;17745;55.914;37.554;2022-12-10T23:28:19;98265.13;;;4.29;58.12
31088;BME280;17745;55.914;37.554;2022-12-10T23:30:52;98266.84;;;4.24;58.15
31088;BME280;17745;55.914;37.554;2022-12-10T23:33:22;98272.09;;;4.24;58.00
31088;BME280;17745;55.914;37.554;2022-12-10T23:35:50;98275.50;;;4.24;58.14
31088;BME280;17745;55.914;37.554;2022-12-10T23:38:17;98282.81;;;4.22;57.98
31088;BME280;17745;55.914;37.554;2022-12-10T23:40:47;98277.69;;;4.15;57.97
31088;BME280;17745;55.914;37.554;2022-12-10T23:43:15;98281.00;;;4.11;58.00
31088;BME280;17745;55.914;37.554;2022-12-10T23:45:44;98278.87;;;4.08;58.13
31088;BME280;17745;55.914;37.554;2022-12-10T23:48:14;98289.00;;;4.04;58.14
31088;BME280;17745;55.914;37.554;2022-12-10T23:50:42;98288.44;;;4.02;58.22
31088;BME280;17745;55.914;37.554;2022-12-10T23:53:09;98282.62;;;4.00;58.31
31088;BME280;17745;55.914;37.554;2022-12-10T23:55:40;98291.19;;;3.95;58.44
31088;BME280;17745;55.914;37.554;2022-12-10T23:58:09;98295.75;;;3.88;58.56
